LIPZEBCI

Guest
Details From LIPZ - Venezia Tessera
To EBCI - Brussels South - Charleroi
Flight Number -
Tags Generated
Created
Modified
Stats Distance 435 nm / 806 km
Max Altitude 0 ft / 0 m
Waypoints 4
Social Downloads 2
Likes 0
Share VATSIM

Download

Looking for another format? Having issues loading an existing format? Contact us
Advertisement - Login to hide

Notes

Generated

Route

LIPZ ROMIR BFS99 EBCI

ID Type Via Altitude Latitude Longitude Leg Dist Tot Dist Heading (true) Name
O LIPZ APT - 0 ft / 0 m 45.49516˚ 12.33556˚ - 0 nm - -
ROMIR FIX - 0 ft / 0 m 47.71306˚ 9.10778˚ 188 nm 188 nm 316° / 314° -
BFS99 FIX - 0 ft / 0 m 50.19800˚ 4.90377˚ 223 nm 411 nm 314° / 310° -
O EBCI APT - 0 ft / 0 m 50.45539˚ 4.43664˚ 23 nm 434 nm 311° / 311° -

Altitude Profile

Advertisement - Login to hide

Weather


0- 5 10 15 20 25 30 35+ Temperature / ° C

Clouds and Precipitation
Forecast for 2018-05-24 12:00 UTC. Updated 3 hours ago

Ground ~20,000 ft ~40,000 ft Winds

LIPZ

Details ICAO LIPZ (VCE)
Name Venezia Tessera
Region Italy
Timezone Europe/Rome (UTC+2.0)
Stats Elevation 7 ft / 2 m (AMSL)
Location 45.504791° 12.349691°
Runways 2
Magnetic Variation 3.230° E

METAR

LIPZ 241350Z 17006KT 130V190 CAVOK 26/17 Q1015 NOSIG

Decode

TAF

TAF LIPZ 241100Z 2412/2518 VRB05KT 9999 FEW040 BECMG 2420/2422 02010KT BECMG 2508/2510 16008KT

Decode

Departure Runways

ID Width Length Bearing (true) Bearing (mag) Surface Threshold Offset Overrun Length
04L 148 ft / 45 m 9,112 ft / 2,777 m 42.01° 38.78° Asphalt 312 ft / 95 m 0 ft / 0 m
04R 148 ft / 45 m 10,834 ft / 3,302 m 41.99° 38.76° Asphalt 0 ft / 0 m 0 ft / 0 m
22L 148 ft / 45 m 10,834 ft / 3,302 m 222.01° 218.78° Asphalt 0 ft / 0 m 0 ft / 0 m
22R 148 ft / 45 m 9,112 ft / 2,777 m 222.02° 218.79° Asphalt 0 ft / 0 m 0 ft / 0 m

EBCI

Details ICAO EBCI (CRL)
Name Brussels South - Charleroi
Region Belgium
Timezone Europe/Brussels (UTC+2.0)
Stats Elevation 614 ft / 187 m (AMSL)
Location 50.459947° 4.453125°
Runways 1
Magnetic Variation 1.194° E

METAR

EBCI 241350Z VRB02KT 9999 VCTS FEW015CB SCT025 BKN035 22/14 Q1016 TEMPO 3000 TSRAGR SCT015CB

Decode

TAF

TAF EBCI 241120Z 2412/2518 VRB03KT 9999 FEW040 TEMPO 2412/2420 VRB15G28KT 3500 TSRA PROB30 TEMPO 2413/2420 2000 +TSRAGR PROB30 TEMPO 2420/2424 VRB15G28KT 3500 SHRA TSRA BECMG 2500/2502 2000 BR BCFG PROB40 2502/2507 0400 FG BKN001 BECMG 2507/2509 9999 NSW PROB30 TEMPO 2514/2518 VRB15G25KT 3500 SHRA TSRA

Decode

Destination Runways

ID Width Length Bearing (true) Bearing (mag) Surface Threshold Offset Overrun Length
07 148 ft / 45 m 8,374 ft / 2,552 m 65.53° 64.34° Asphalt 1,476 ft / 450 m 0 ft / 0 m
25 148 ft / 45 m 8,374 ft / 2,552 m 245.55° 244.36° Asphalt 0 ft / 0 m 0 ft / 0 m

Approach Navaids

Runway Type Ident Frequency Range Bearing (true) Bearing (mag) Slope Elevation
25 Localiser IGC 110.90 MHz 18 nm / 33 km 245.54° 244.35° - 614 ft / 187 m (AMSL)
25 Glidescope IGC 110.90 MHz 10 nm / 19 km 245.54° 244.35° 3.00° 614 ft / 187 m (AMSL)